createdAt,value
2019-05-16T00:00:19.219Z,8.60
2019-05-16T00:02:50.662Z,8.53
2019-05-16T00:05:22.495Z,8.52
2019-05-16T00:07:54.054Z,8.43
2019-05-16T00:10:27.916Z,8.44
2019-05-16T00:12:59.752Z,8.37
2019-05-16T00:15:31.587Z,8.32
2019-05-16T00:18:03.238Z,8.27
2019-05-16T00:20:34.799Z,8.22
2019-05-16T00:23:07.951Z,8.22
2019-05-16T00:25:39.629Z,8.15
2019-05-16T00:28:11.191Z,8.12
2019-05-16T00:30:42.880Z,8.09
2019-05-16T00:33:15.514Z,8.00
2019-05-16T00:35:48.175Z,7.97
2019-05-16T00:38:20.417Z,7.92
2019-05-16T00:40:51.979Z,7.89
2019-05-16T00:43:23.525Z,7.89
2019-05-16T00:45:55.137Z,7.89
2019-05-16T00:48:28.677Z,7.89
2019-05-16T00:50:59.936Z,7.85
2019-05-16T00:53:31.529Z,7.84
2019-05-16T00:56:03.142Z,7.79
2019-05-16T00:58:38.028Z,7.72
2019-05-16T01:01:09.653Z,7.74
2019-05-16T01:03:41.247Z,7.72
2019-05-16T01:06:18.746Z,7.69
2019-05-16T01:08:48.572Z,7.73
2019-05-16T01:11:19.445Z,7.69
2019-05-16T01:13:51.097Z,7.63
2019-05-16T01:16:22.646Z,7.56
2019-05-16T01:18:54.232Z,7.48
2019-05-16T01:21:25.794Z,7.38
2019-05-16T01:23:58.616Z,7.28
2019-05-16T01:26:30.270Z,7.15
2019-05-16T01:29:01.851Z,7.13
2019-05-16T01:31:33.371Z,7.15
2019-05-16T01:34:04.962Z,7.14
2019-05-16T01:36:38.000Z,7.14
2019-05-16T01:39:09.869Z,7.12
2019-05-16T01:41:41.484Z,7.11
2019-05-16T01:44:13.048Z,7.07
2019-05-16T01:46:44.601Z,6.99
2019-05-16T01:49:16.157Z,6.96
2019-05-16T01:51:48.426Z,6.97
2019-05-16T01:54:20.060Z,6.98
2019-05-16T01:56:51.633Z,6.95
2019-05-16T01:59:23.179Z,6.84
2019-05-16T02:01:54.728Z,6.82
2019-05-16T02:04:28.617Z,6.69
2019-05-16T02:06:59.566Z,6.63
2019-05-16T02:09:31.114Z,6.60
2019-05-16T02:12:02.675Z,6.59
2019-05-16T02:14:34.219Z,6.60
2019-05-16T02:17:05.874Z,6.52
2019-05-16T02:19:38.523Z,6.61
2019-05-16T02:22:10.194Z,6.58
2019-05-16T02:24:41.748Z,6.60
2019-05-16T02:27:13.343Z,6.64
2019-05-16T02:29:44.874Z,6.69
2019-05-16T02:32:16.430Z,6.70
2019-05-16T02:34:47.999Z,6.66
2019-05-16T02:37:29.297Z,6.56
2019-05-16T02:39:54.501Z,6.50
2019-05-16T02:42:26.322Z,6.46
2019-05-16T02:44:57.896Z,6.44
2019-05-16T02:47:30.951Z,6.45
2019-05-16T02:50:02.766Z,6.44
2019-05-16T02:52:34.311Z,6.47
2019-05-16T02:55:06.083Z,6.50
2019-05-16T02:57:41.113Z,6.51
2019-05-16T03:00:12.669Z,6.53
2019-05-16T03:02:44.407Z,6.53
2019-05-16T03:05:17.025Z,6.65
2019-05-16T03:07:51.845Z,6.67
2019-05-16T03:10:22.203Z,6.61
2019-05-16T03:12:55.685Z,6.51
2019-05-16T03:15:30.704Z,6.47
2019-05-16T03:18:04.302Z,6.43
2019-05-16T03:20:35.891Z,6.36
2019-05-16T03:23:07.445Z,6.37
2019-05-16T03:25:41.796Z,6.47
2019-05-16T03:28:12.264Z,6.46
2019-05-16T03:30:45.279Z,6.55
2019-05-16T03:33:26.185Z,6.54
2019-05-16T03:35:54.720Z,6.50
2019-05-16T03:38:23.624Z,6.47
2019-05-16T03:40:55.192Z,6.47
2019-05-16T03:43:26.714Z,6.44
2019-05-16T03:46:02.138Z,6.39
2019-05-16T03:48:32.642Z,6.37
2019-05-16T03:51:04.221Z,6.38
2019-05-16T03:53:35.767Z,6.42
2019-05-16T03:56:07.356Z,6.46
2019-05-16T03:58:41.598Z,6.52
2019-05-16T04:01:12.178Z,6.58
2019-05-16T04:03:43.695Z,6.62
2019-05-16T04:06:15.264Z,6.67
2019-05-16T04:08:46.801Z,6.72
2019-05-16T04:11:22.785Z,6.75
2019-05-16T04:13:52.740Z,6.77
2019-05-16T04:16:24.295Z,6.83
2019-05-16T04:18:55.874Z,6.90
2019-05-16T04:21:27.452Z,7.03
2019-05-16T04:24:01.242Z,7.10
2019-05-16T04:26:35.760Z,7.14
2019-05-16T04:29:05.566Z,7.16
2019-05-16T04:31:37.153Z,7.18
2019-05-16T04:34:11.496Z,7.22
2019-05-16T04:36:41.993Z,7.23
2019-05-16T04:39:13.568Z,7.24
2019-05-16T04:41:45.105Z,7.26
2019-05-16T04:44:16.798Z,7.24
2019-05-16T04:46:51.058Z,7.26
2019-05-16T04:49:21.621Z,7.31
2019-05-16T04:51:54.254Z,7.39
2019-05-16T04:54:25.838Z,7.46
2019-05-16T04:57:01.231Z,7.54
2019-05-16T04:59:31.354Z,7.60
2019-05-16T05:02:03.101Z,7.68
2019-05-16T05:04:34.660Z,7.78
2019-05-16T05:07:06.230Z,7.83
2019-05-16T05:09:40.627Z,7.92
2019-05-16T05:12:11.601Z,7.97
2019-05-16T05:14:43.388Z,8.05
2019-05-16T05:17:14.969Z,8.16
2019-05-16T05:19:46.550Z,8.24
2019-05-16T05:22:19.907Z,8.32
2019-05-16T05:24:51.390Z,8.44
2019-05-16T05:27:22.976Z,8.54
2019-05-16T05:29:55.485Z,8.64
2019-05-16T05:32:27.111Z,8.75
2019-05-16T05:34:59.833Z,8.89
2019-05-16T05:37:31.702Z,9.01
2019-05-16T05:40:03.382Z,9.12
2019-05-16T05:42:35.010Z,9.20
2019-05-16T05:45:06.946Z,9.30
2019-05-16T05:47:40.270Z,9.40
2019-05-16T05:50:12.354Z,9.51
2019-05-16T05:52:46.155Z,9.61
2019-05-16T05:55:19.803Z,9.70
2019-05-16T05:57:50.850Z,9.78
2019-05-16T06:00:22.524Z,9.91
2019-05-16T06:02:54.137Z,10.01
2019-05-16T06:05:25.868Z,10.14
2019-05-16T06:08:00.156Z,10.27
2019-05-16T06:10:31.046Z,10.41
2019-05-16T06:13:03.759Z,10.52
2019-05-16T06:15:35.416Z,10.63
2019-05-16T06:18:06.997Z,10.68
2019-05-16T06:20:40.113Z,10.85
2019-05-16T06:23:11.695Z,11.02
2019-05-16T06:25:43.288Z,11.16
2019-05-16T06:28:14.842Z,11.31
2019-05-16T06:30:46.420Z,11.45
2019-05-16T06:33:19.932Z,11.57
2019-05-16T06:35:51.669Z,11.67
2019-05-16T06:38:23.368Z,11.82
2019-05-16T06:40:54.950Z,11.97
2019-05-16T06:43:26.513Z,12.09
2019-05-16T06:46:00.351Z,12.17
2019-05-16T06:48:31.353Z,12.23
2019-05-16T06:51:03.308Z,12.37
2019-05-16T06:53:35.021Z,12.47
2019-05-16T06:56:06.594Z,12.56
2019-05-16T06:58:45.632Z,12.61
2019-05-16T07:01:11.460Z,12.66
2019-05-16T07:03:43.021Z,12.68
2019-05-16T07:06:37.850Z,12.74
2019-05-16T07:08:50.525Z,12.90
2019-05-16T07:11:21.175Z,13.05
2019-05-16T07:13:52.730Z,13.16
2019-05-16T07:16:24.322Z,13.22
2019-05-16T07:18:55.918Z,13.15
2019-05-16T07:21:27.512Z,13.23
2019-05-16T07:24:00.174Z,13.33
2019-05-16T07:26:31.820Z,13.54
2019-05-16T07:29:03.711Z,13.70
2019-05-16T07:31:35.548Z,13.77
2019-05-16T07:34:10.411Z,13.85
2019-05-16T07:36:41.446Z,13.92
2019-05-16T07:39:13.039Z,13.90
2019-05-16T07:41:44.602Z,13.88
2019-05-16T07:44:17.160Z,13.90
2019-05-16T07:46:51.255Z,14.00
2019-05-16T07:49:22.054Z,14.09
2019-05-16T07:51:53.633Z,14.10
2019-05-16T07:54:25.285Z,13.95
2019-05-16T07:57:02.235Z,13.81
2019-05-16T07:59:30.199Z,13.74
2019-05-16T08:02:21.196Z,13.78
2019-05-16T08:04:52.924Z,13.74
2019-05-16T08:07:24.481Z,14.04
2019-05-16T08:09:56.056Z,14.31
2019-05-16T08:12:27.674Z,14.37
2019-05-16T08:15:00.719Z,14.58
2019-05-16T08:17:32.697Z,14.77
2019-05-16T08:20:04.352Z,14.78
2019-05-16T08:22:35.920Z,14.89
2019-05-16T08:25:10.486Z,15.03
2019-05-16T08:27:42.612Z,15.08
2019-05-16T08:30:14.809Z,15.35
2019-05-16T08:32:46.416Z,15.33
2019-05-16T08:35:20.509Z,15.24
2019-05-16T08:37:51.680Z,15.00
2019-05-16T08:40:23.539Z,14.88
2019-05-16T08:42:55.126Z,14.88
2019-05-16T08:45:26.713Z,14.88
2019-05-16T08:48:00.228Z,15.02
2019-05-16T08:50:34.951Z,15.03
2019-05-16T08:53:04.859Z,15.09
2019-05-16T08:55:36.429Z,15.23
2019-05-16T08:58:13.211Z,15.30
2019-05-16T09:00:42.055Z,15.43
2019-05-16T09:03:13.751Z,15.44
2019-05-16T09:05:45.323Z,15.53
2019-05-16T09:08:16.894Z,15.74
2019-05-16T09:10:59.721Z,15.83
2019-05-16T09:13:21.733Z,15.94
2019-05-16T09:15:53.304Z,16.05
2019-05-16T09:18:28.229Z,16.17
2019-05-16T09:20:58.262Z,16.27
2019-05-16T09:23:29.820Z,16.28
2019-05-16T09:26:01.379Z,16.48
2019-05-16T09:28:33.051Z,16.69
2019-05-16T09:31:07.142Z,16.79
2019-05-16T09:33:37.936Z,16.91
2019-05-16T09:36:09.509Z,17.06
2019-05-16T09:38:41.071Z,17.22
2019-05-16T09:41:12.632Z,17.33
2019-05-16T09:43:44.203Z,17.36
2019-05-16T09:46:17.192Z,17.50
2019-05-16T09:48:49.327Z,17.55
2019-05-16T09:51:21.494Z,17.80
2019-05-16T09:53:53.131Z,17.93
2019-05-16T09:56:26.854Z,18.27
2019-05-16T09:58:57.950Z,18.43
2019-05-16T10:01:29.527Z,18.61
2019-05-16T10:04:01.098Z,18.63
2019-05-16T10:06:32.686Z,18.48
2019-05-16T10:09:06.417Z,18.42
2019-05-16T10:11:41.762Z,18.30
2019-05-16T10:14:11.510Z,18.25
2019-05-16T10:16:43.403Z,18.09
2019-05-16T10:19:16.916Z,17.84
2019-05-16T10:21:48.241Z,17.72
2019-05-16T10:24:19.831Z,17.58
2019-05-16T10:26:53.956Z,17.46
2019-05-16T10:29:27.139Z,17.21
2019-05-16T10:31:57.953Z,16.94
2019-05-16T10:34:29.631Z,16.91
2019-05-16T10:37:01.515Z,17.17
2019-05-16T10:39:33.093Z,17.28
2019-05-16T10:42:06.682Z,17.34
2019-05-16T10:44:38.842Z,17.60
2019-05-16T10:47:10.579Z,17.91
2019-05-16T10:49:42.177Z,18.38
2019-05-16T10:52:16.453Z,18.86
2019-05-16T10:54:57.560Z,18.77
2019-05-16T10:57:20.420Z,18.66
2019-05-16T11:00:05.195Z,18.67
2019-05-16T11:02:27.575Z,18.40
2019-05-16T11:05:08.463Z,18.42
2019-05-16T11:07:32.158Z,18.30
2019-05-16T11:10:06.748Z,18.40
2019-05-16T11:12:47.550Z,18.23
2019-05-16T11:15:11.998Z,17.87
2019-05-16T11:17:43.602Z,18.02
2019-05-16T11:20:19.670Z,18.18
2019-05-16T11:22:50.087Z,18.45
2019-05-16T11:25:28.786Z,18.55
2019-05-16T11:27:57.433Z,18.47
2019-05-16T11:30:28.776Z,18.37
2019-05-16T11:33:00.373Z,18.15
2019-05-16T11:35:33.058Z,18.50
2019-05-16T11:38:07.129Z,18.75
2019-05-16T11:40:38.989Z,18.89
2019-05-16T11:43:17.736Z,19.10
2019-05-16T11:45:43.845Z,19.17
2019-05-16T11:48:17.061Z,19.19
2019-05-16T11:50:48.906Z,19.07
2019-05-16T11:53:20.495Z,18.94
2019-05-16T11:55:57.682Z,19.12
2019-05-16T11:58:26.651Z,19.23
2019-05-16T12:00:58.389Z,19.39
2019-05-16T12:03:29.992Z,19.54
2019-05-16T12:06:01.573Z,19.47
2019-05-16T12:08:33.198Z,19.54
2019-05-16T12:11:06.863Z,19.61
2019-05-16T12:13:38.093Z,19.50
2019-05-16T12:16:09.680Z,19.48
2019-05-16T12:18:41.272Z,19.52
2019-05-16T12:21:12.858Z,19.61
2019-05-16T12:23:47.124Z,19.58
2019-05-16T12:26:18.024Z,19.50
2019-05-16T12:28:49.594Z,19.45
2019-05-16T12:31:21.151Z,19.42
2019-05-16T12:33:52.770Z,19.56
2019-05-16T12:36:26.624Z,19.75
2019-05-16T12:38:57.658Z,19.88
2019-05-16T12:41:29.203Z,19.95
2019-05-16T12:44:01.070Z,19.96
2019-05-16T12:46:32.684Z,20.01
2019-05-16T12:49:06.860Z,19.96
2019-05-16T12:51:37.556Z,19.93
2019-05-16T12:54:09.152Z,19.87
2019-05-16T12:56:41.789Z,19.79
2019-05-16T12:59:20.548Z,19.78
2019-05-16T13:01:48.134Z,19.81
2019-05-16T13:04:21.025Z,19.80
2019-05-16T13:06:52.582Z,19.79
2019-05-16T13:09:26.386Z,19.75
2019-05-16T13:11:57.810Z,19.68
2019-05-16T13:14:29.506Z,19.64
2019-05-16T13:17:01.068Z,19.78
2019-05-16T13:19:34.291Z,19.85
2019-05-16T13:22:07.331Z,19.87
2019-05-16T13:24:40.108Z,19.92
2019-05-16T13:27:11.991Z,19.92
2019-05-16T13:29:43.607Z,19.88
2019-05-16T13:32:17.238Z,19.84
2019-05-16T13:34:48.445Z,19.86
2019-05-16T13:37:20.026Z,19.87
2019-05-16T13:39:51.688Z,19.83
2019-05-16T13:42:23.273Z,19.82
2019-05-16T13:44:54.842Z,19.82
2019-05-16T13:47:26.909Z,19.76
2019-05-16T13:49:58.511Z,19.69
2019-05-16T13:52:30.091Z,19.64
2019-05-16T13:55:01.649Z,19.60
2019-05-16T13:57:33.236Z,19.53
2019-05-16T14:00:07.546Z,19.44
2019-05-16T14:02:39.578Z,19.40
2019-05-16T14:05:13.325Z,19.36
2019-05-16T14:07:47.493Z,19.26
2019-05-16T14:10:18.687Z,19.23
2019-05-16T14:12:50.499Z,19.19
2019-05-16T14:15:22.279Z,19.14
2019-05-16T14:17:56.667Z,19.13
2019-05-16T14:20:27.280Z,19.07
2019-05-16T14:23:01.615Z,19.05
2019-05-16T14:25:32.164Z,19.00
2019-05-16T14:28:07.421Z,18.87
2019-05-16T14:30:38.302Z,18.87
2019-05-16T14:33:13.841Z,18.87
2019-05-16T14:35:43.256Z,18.90
2019-05-16T14:38:17.345Z,18.78
2019-05-16T14:40:50.278Z,18.77
2019-05-16T14:43:21.440Z,18.85
2019-05-16T14:45:53.074Z,18.84
2019-05-16T14:48:27.576Z,18.89
2019-05-16T14:50:58.046Z,18.88
2019-05-16T14:53:29.704Z,18.94
2019-05-16T14:56:01.302Z,18.98
2019-05-16T14:58:32.919Z,19.02
2019-05-16T15:01:07.165Z,19.02
2019-05-16T15:03:39.070Z,18.94
2019-05-16T15:06:10.642Z,18.72
2019-05-16T15:08:42.275Z,18.62
2019-05-16T15:11:14.686Z,18.54
2019-05-16T15:13:47.168Z,18.47
2019-05-16T15:16:18.738Z,18.31
2019-05-16T15:18:50.346Z,18.08
2019-05-16T15:21:21.966Z,17.99
2019-05-16T15:23:53.574Z,18.04
2019-05-16T15:26:26.744Z,18.04
2019-05-16T15:28:59.606Z,18.09
2019-05-16T15:31:31.169Z,18.02
2019-05-16T15:34:02.774Z,17.98
2019-05-16T15:36:37.231Z,17.92
2019-05-16T15:39:10.044Z,17.92
2019-05-16T15:41:41.647Z,17.81
2019-05-16T15:44:13.274Z,17.85
2019-05-16T15:46:44.873Z,17.90
2019-05-16T15:49:17.229Z,17.84
2019-05-16T15:51:49.925Z,17.84
2019-05-16T15:54:28.281Z,17.79
2019-05-16T15:56:57.854Z,17.78
2019-05-16T15:59:29.536Z,17.84
2019-05-16T16:02:01.082Z,17.84
2019-05-16T16:04:32.712Z,17.84
2019-05-16T16:07:07.396Z,17.77
2019-05-16T16:09:38.075Z,17.71
2019-05-16T16:12:10.807Z,17.59
2019-05-16T16:14:42.930Z,17.54
2019-05-16T16:17:14.516Z,17.50
2019-05-16T16:19:46.968Z,17.46
2019-05-16T16:22:18.702Z,17.41
2019-05-16T16:24:50.313Z,17.47
2019-05-16T16:27:21.903Z,17.44
2019-05-16T16:29:53.507Z,17.41
2019-05-16T16:32:26.850Z,17.44
2019-05-16T16:34:58.700Z,17.44
2019-05-16T16:37:30.294Z,17.43
2019-05-16T16:40:01.926Z,17.40
2019-05-16T16:42:37.329Z,17.38
2019-05-16T16:45:09.029Z,17.32
2019-05-16T16:47:40.665Z,17.28
2019-05-16T16:50:12.680Z,17.18
2019-05-16T16:52:44.373Z,17.25
2019-05-16T16:55:16.976Z,17.31
2019-05-16T16:57:48.703Z,17.28
2019-05-16T17:00:20.821Z,17.21
2019-05-16T17:03:03.281Z,17.23
2019-05-16T17:05:26.522Z,17.16
2019-05-16T17:07:58.390Z,17.16
2019-05-16T17:10:30.057Z,17.16
2019-05-16T17:13:01.684Z,17.16
2019-05-16T17:15:33.320Z,17.12
2019-05-16T17:18:07.033Z,17.10
2019-05-16T17:20:38.396Z,17.05
2019-05-16T17:23:10.117Z,17.03
2019-05-16T17:25:41.714Z,17.05
2019-05-16T17:28:13.334Z,17.06
2019-05-16T17:30:47.030Z,17.09
2019-05-16T17:33:19.037Z,17.05
2019-05-16T17:35:50.641Z,16.98
2019-05-16T17:38:22.353Z,16.91
2019-05-16T17:40:53.949Z,16.89
2019-05-16T17:43:27.078Z,16.87
2019-05-16T17:45:58.913Z,16.83
2019-05-16T17:48:30.627Z,16.76
2019-05-16T17:51:02.371Z,16.71
2019-05-16T17:53:33.968Z,16.65
2019-05-16T17:56:06.927Z,16.65
2019-05-16T17:58:38.858Z,16.64
2019-05-16T18:01:11.526Z,16.61
2019-05-16T18:03:43.185Z,16.64
2019-05-16T18:06:16.959Z,16.66
2019-05-16T18:08:48.476Z,16.72
2019-05-16T18:11:20.115Z,16.73
2019-05-16T18:13:51.738Z,16.71
2019-05-16T18:16:23.348Z,16.68
2019-05-16T18:18:57.343Z,16.64
2019-05-16T18:21:28.329Z,16.60
2019-05-16T18:23:59.938Z,16.44
2019-05-16T18:26:31.566Z,16.33
2019-05-16T18:29:03.198Z,16.18
2019-05-16T18:31:37.154Z,16.03
2019-05-16T18:34:08.084Z,15.83
2019-05-16T18:36:39.847Z,15.66
2019-05-16T18:39:11.533Z,15.54
2019-05-16T18:41:43.309Z,15.41
2019-05-16T18:44:16.726Z,15.36
2019-05-16T18:46:48.458Z,15.33
2019-05-16T18:49:23.914Z,15.20
2019-05-16T18:51:54.425Z,15.16
2019-05-16T18:54:26.705Z,15.17
2019-05-16T18:56:58.420Z,15.13
2019-05-16T18:59:30.030Z,15.07
2019-05-16T19:02:01.620Z,14.96
2019-05-16T19:04:33.321Z,14.92
2019-05-16T19:07:07.643Z,14.85
2019-05-16T19:09:38.194Z,14.76
2019-05-16T19:12:09.812Z,14.62
2019-05-16T19:14:41.403Z,14.53
2019-05-16T19:17:22.232Z,14.49
2019-05-16T19:19:46.437Z,14.37
2019-05-16T19:22:18.094Z,14.23
2019-05-16T19:24:49.974Z,14.18
2019-05-16T19:27:21.741Z,14.13
2019-05-16T19:29:53.382Z,14.01
2019-05-16T19:32:25.021Z,13.86
2019-05-16T19:34:58.386Z,13.82
2019-05-16T19:37:31.227Z,13.76
2019-05-16T19:40:03.024Z,13.69
2019-05-16T19:42:36.769Z,13.67
2019-05-16T19:45:08.070Z,13.39
2019-05-16T19:47:41.246Z,13.34
2019-05-16T19:50:15.004Z,13.24
2019-05-16T19:52:47.213Z,13.15
2019-05-16T19:55:19.013Z,12.97
2019-05-16T19:57:50.588Z,12.97
2019-05-16T20:00:22.614Z,12.82
2019-05-16T20:02:56.963Z,12.80
2019-05-16T20:05:29.752Z,12.67
2019-05-16T20:08:01.375Z,12.57
2019-05-16T20:10:32.982Z,12.55
2019-05-16T20:13:04.570Z,12.51
2019-05-16T20:15:36.760Z,12.48
2019-05-16T20:18:08.454Z,12.52
2019-05-16T20:20:40.157Z,12.53
2019-05-16T20:23:12.836Z,12.46
2019-05-16T20:25:46.877Z,12.45
2019-05-16T20:28:18.595Z,12.48
2019-05-16T20:30:51.988Z,12.55
2019-05-16T20:33:23.592Z,12.55
2019-05-16T20:35:57.477Z,12.59
2019-05-16T20:38:29.016Z,12.67
2019-05-16T20:41:00.630Z,12.68
2019-05-16T20:43:32.258Z,12.74
2019-05-16T20:46:03.881Z,12.74
2019-05-16T20:48:36.908Z,12.75
2019-05-16T20:51:10.014Z,12.78
2019-05-16T20:53:41.608Z,12.81
2019-05-16T20:56:13.244Z,12.80
2019-05-16T20:58:46.670Z,12.82
2019-05-16T21:01:18.328Z,12.80
2019-05-16T21:03:50.022Z,12.80
2019-05-16T21:06:21.657Z,12.86
2019-05-16T21:08:53.329Z,12.82
2019-05-16T21:11:26.434Z,12.80
2019-05-16T21:13:58.094Z,12.74
2019-05-16T21:16:29.709Z,12.74
2019-05-16T21:19:01.325Z,12.73
2019-05-16T21:21:32.902Z,12.70
2019-05-16T21:24:06.616Z,12.63
2019-05-16T21:26:37.803Z,12.62
2019-05-16T21:29:11.055Z,12.59
2019-05-16T21:31:42.638Z,12.59
2019-05-16T21:34:16.155Z,12.58
2019-05-16T21:36:48.664Z,12.56
2019-05-16T21:39:20.289Z,12.50
2019-05-16T21:41:51.910Z,12.45
2019-05-16T21:44:23.524Z,12.43
2019-05-16T21:46:56.440Z,12.35
2019-05-16T21:49:28.224Z,12.34
2019-05-16T21:52:00.957Z,12.34
2019-05-16T21:54:32.570Z,12.30
2019-05-16T21:57:04.199Z,12.27
2019-05-16T21:59:37.548Z,12.22
2019-05-16T22:02:09.482Z,12.24
2019-05-16T22:04:44.280Z,12.17
2019-05-16T22:07:17.028Z,12.12
2019-05-16T22:09:48.677Z,12.08
2019-05-16T22:12:21.541Z,12.03
2019-05-16T22:14:57.085Z,12.00
2019-05-16T22:17:28.182Z,11.93
2019-05-16T22:19:59.882Z,11.88
2019-05-16T22:22:31.455Z,11.77
2019-05-16T22:25:03.091Z,11.76
2019-05-16T22:27:34.863Z,11.68
2019-05-16T22:30:11.393Z,11.65
2019-05-16T22:32:42.976Z,11.57
2019-05-16T22:35:16.782Z,11.54
2019-05-16T22:37:55.480Z,11.48
2019-05-16T22:40:22.442Z,11.47
2019-05-16T22:42:54.079Z,11.48
2019-05-16T22:45:27.115Z,11.45
2019-05-16T22:47:58.930Z,11.46
2019-05-16T22:50:30.558Z,11.42
2019-05-16T22:53:02.172Z,11.42
2019-05-16T22:55:33.785Z,11.37
2019-05-16T22:58:07.424Z,11.35
2019-05-16T23:00:41.273Z,11.35
2019-05-16T23:03:12.396Z,11.30
2019-05-16T23:05:44.003Z,11.29
2019-05-16T23:08:16.435Z,11.22
2019-05-16T23:10:48.148Z,11.23
2019-05-16T23:13:19.767Z,11.24
2019-05-16T23:15:51.396Z,11.23
2019-05-16T23:18:23.011Z,11.23
2019-05-16T23:20:56.798Z,11.22
2019-05-16T23:23:27.944Z,11.20
2019-05-16T23:25:59.520Z,11.20
2019-05-16T23:28:31.113Z,11.17
2019-05-16T23:31:02.726Z,11.19
2019-05-16T23:33:36.362Z,11.17
2019-05-16T23:36:07.635Z,11.21
2019-05-16T23:38:39.391Z,11.21
2019-05-16T23:41:11.021Z,11.26
2019-05-16T23:43:42.621Z,11.26
2019-05-16T23:46:16.390Z,11.24
2019-05-16T23:48:47.535Z,11.24
2019-05-16T23:51:19.133Z,11.24
2019-05-16T23:53:50.709Z,11.23
2019-05-16T23:56:22.345Z,11.24
2019-05-16T23:58:53.984Z,11.25
